Time;durP1;ratioP1;P1;durP2;ratioP2;P2;SDS_P1;SDS_P2;PMS_P1;PMS_P2;Temp;Humidity;BMP_temperature;BMP_pressure;BME280_temperature;BME280_humidity;BME280_pressure;Samples;Min_cycle;Max_cycle;Signal;HPM_P1;HPM_P2
2021/11/21 00:00:40;;;;;;;6.33;3.20;;;;;;;4.93;95.75;96245.72;5116418;28;20232;-70
2021/11/21 00:03:07;;;;;;;5.07;3.40;;;;;;;4.85;95.51;96244.81;5116045;28;20228;-70
2021/11/21 00:05:33;;;;;;;13.37;3.87;;;;;;;4.56;97.06;96245.84;5115641;27;20205;-70
2021/11/21 00:08:00;;;;;;;3.60;2.47;;;;;;;4.35;97.33;96245.16;5117565;27;20709;-70
2021/11/21 00:10:29;;;;;;;12.17;3.40;;;;;;;4.86;96.19;96243.81;5119942;27;20222;-70
2021/11/21 00:12:56;;;;;;;5.57;3.30;;;;;;;4.72;96.59;96238.22;5120192;27;20293;-70
2021/11/21 00:15:22;;;;;;;9.83;3.27;;;;;;;4.45;97.51;96232.94;5120414;27;20202;-70
2021/11/21 00:17:50;;;;;;;5.77;3.90;;;;;;;4.94;96.60;96234.31;5119805;27;20586;-70
2021/11/21 00:20:17;;;;;;;4.67;3.30;;;;;;;4.85;96.26;96232.56;5119876;27;20736;-70
2021/11/21 00:22:44;;;;;;;2.60;2.20;;;;;;;5.01;95.94;96230.16;5120220;27;20320;-70
2021/11/21 00:25:11;;;;;;;4.53;3.07;;;;;;;4.91;95.97;96228.53;5120146;27;20208;-70
2021/11/21 00:27:37;;;;;;;12.67;4.80;;;;;;;4.95;95.52;96215.06;5119214;27;20206;-70
2021/11/21 00:30:04;;;;;;;4.83;3.30;;;;;;;4.93;96.56;96211.78;5120435;27;20603;-70
2021/11/21 00:32:31;;;;;;;6.87;4.43;;;;;;;4.72;96.93;96219.97;5119875;27;20666;-70
2021/11/21 00:34:59;;;;;;;5.87;2.57;;;;;;;4.91;97.92;96224.16;5117190;27;20222;-70
2021/11/21 00:37:28;;;;;;;4.53;2.93;;;;;;;4.66;98.09;96210.91;5119566;27;20202;-70
2021/11/21 00:39:55;;;;;;;7.60;4.27;;;;;;;4.85;97.25;96206.44;5120257;27;20218;-70
2021/11/21 00:42:21;;;;;;;9.47;3.17;;;;;;;4.72;97.39;96202.50;5119845;27;20216;-70
2021/11/21 00:44:48;;;;;;;3.97;2.63;;;;;;;4.36;99.18;96205.09;5120012;27;20212;-70
2021/11/21 00:47:14;;;;;;;6.67;2.50;;;;;;;4.23;99.43;96196.75;5119266;27;20198;-70
2021/11/21 00:49:42;;;;;;;7.73;3.83;;;;;;;4.82;97.95;96197.28;5119801;27;20221;-70
2021/11/21 00:52:12;;;;;;;5.40;3.13;;;;;;;4.70;98.85;96204.44;5119325;27;20282;-70
2021/11/21 00:54:46;;;;;;;4.40;3.40;;;;;;;4.55;99.07;96190.19;5119880;27;20289;-70
2021/11/21 00:57:13;;;;;;;5.40;2.47;;;;;;;4.34;99.74;96193.97;5118749;27;20223;-70
2021/11/21 00:59:39;;;;;;;3.43;3.17;;;;;;;4.38;99.51;96190.13;5119787;27;20222;-70
2021/11/21 01:02:09;;;;;;;5.83;2.40;;;;;;;4.39;99.72;96181.31;5119689;27;20205;-70
2021/11/21 01:04:35;;;;;;;8.63;3.63;;;;;;;4.52;99.12;96180.06;5119995;27;20746;-70
2021/11/21 01:07:02;;;;;;;3.67;2.97;;;;;;;4.50;98.72;96179.38;5119399;27;20209;-70
2021/11/21 01:09:30;;;;;;;4.67;2.00;;;;;;;4.96;98.57;96167.13;5120390;27;20198;-70
2021/11/21 01:11:57;;;;;;;4.10;3.10;;;;;;;4.81;97.93;96170.31;5118862;27;20205;-70
2021/11/21 01:14:24;;;;;;;7.40;2.77;;;;;;;4.58;99.18;96174.28;5119310;27;20226;-70
2021/11/21 01:16:51;;;;;;;7.33;5.27;;;;;;;4.81;97.66;96172.94;5119045;27;20232;-70
2021/11/21 01:19:18;;;;;;;5.37;2.97;;;;;;;4.57;98.96;96169.19;5118978;27;20806;-70
2021/11/21 01:21:45;;;;;;;4.53;2.80;;;;;;;4.77;97.98;96157.72;5119631;27;20206;-70
2021/11/21 01:24:11;;;;;;;5.57;2.93;;;;;;;5.04;97.17;96154.16;5119741;27;20221;-70
2021/11/21 01:26:39;;;;;;;5.53;3.13;;;;;;;4.87;98.47;96149.72;5119025;27;20209;-70
2021/11/21 01:29:06;;;;;;;3.40;2.50;;;;;;;4.75;97.98;96151.81;5119358;27;20202;-70
2021/11/21 01:31:33;;;;;;;20.67;4.73;;;;;;;4.83;98.79;96140.50;5119287;27;20729;-71
2021/11/21 01:33:59;;;;;;;5.07;3.33;;;;;;;4.73;98.25;96140.72;5119549;27;20214;-70
2021/11/21 01:36:25;;;;;;;14.67;5.87;;;;;;;4.73;98.03;96130.25;5119041;27;20252;-70
2021/11/21 01:38:52;;;;;;;6.27;3.73;;;;;;;5.00;97.58;96126.69;5119788;27;20202;-70
2021/11/21 01:41:19;;;;;;;7.33;3.80;;;;;;;4.95;97.58;96121.09;5119756;27;20221;-70
2021/11/21 01:43:47;;;;;;;5.50;3.20;;;;;;;5.03;98.34;96123.78;5118947;27;20212;-71
2021/11/21 01:46:14;;;;;;;6.70;4.67;;;;;;;4.39;99.69;96122.16;5117781;27;20195;-70
2021/11/21 01:48:40;;;;;;;8.50;3.60;;;;;;;4.55;99.66;96116.34;5118565;27;20564;-70
2021/11/21 01:51:08;;;;;;;7.00;3.50;;;;;;;4.65;99.58;96117.94;5118928;27;21080;-70
2021/11/21 01:53:35;;;;;;;4.77;1.70;;;;;;;4.59;99.42;96109.88;5118405;27;20212;-70
2021/11/21 01:56:02;;;;;;;3.07;2.57;;;;;;;4.55;99.59;96117.16;5118162;27;20545;-70
2021/11/21 01:58:29;;;;;;;3.60;2.57;;;;;;;4.66;99.40;96109.16;5117599;27;20201;-70
2021/11/21 02:00:58;;;;;;;3.37;2.63;;;;;;;4.99;99.18;96103.31;5118233;27;20229;-70
2021/11/21 02:03:24;;;;;;;7.70;4.50;;;;;;;4.86;98.41;96103.69;5118147;27;20202;-70
2021/11/21 02:05:51;;;;;;;7.73;4.73;;;;;;;4.56;99.31;96103.13;5117863;27;20205;-70
2021/11/21 02:08:17;;;;;;;7.10;3.47;;;;;;;4.42;99.91;96105.41;5118808;27;20209;-70
2021/11/21 02:10:44;;;;;;;5.47;3.30;;;;;;;4.56;99.58;96094.50;5118441;27;20217;-70
2021/11/21 02:13:11;;;;;;;7.07;4.47;;;;;;;4.86;98.50;96087.19;5118186;27;20194;-70
2021/11/21 02:15:38;;;;;;;5.57;3.07;;;;;;;4.98;98.16;96099.91;5117214;27;20202;-70
2021/11/21 02:18:06;;;;;;;13.13;3.37;;;;;;;4.50;100.00;96095.06;5118374;27;20573;-70
2021/11/21 02:20:55;;;;;;;9.47;4.07;;;;;;;4.93;98.70;96081.22;5117409;27;20218;-70
2021/11/21 02:23:23;;;;;;;2.90;2.30;;;;;;;4.73;99.13;96065.03;5117557;27;20193;-70
2021/11/21 02:25:50;;;;;;;4.07;2.53;;;;;;;4.85;98.51;96068.09;5116130;27;20205;-70
2021/11/21 02:28:17;;;;;;;4.20;2.93;;;;;;;4.99;97.44;96070.22;5117053;27;20208;-70
2021/11/21 02:30:45;;;;;;;7.73;4.33;;;;;;;5.01;97.50;96057.00;5117026;27;20230;-70
2021/11/21 02:33:13;;;;;;;5.30;3.33;;;;;;;5.02;98.02;96053.44;5116245;27;20291;-70
2021/11/21 02:35:43;;;;;;;7.43;3.80;;;;;;;5.12;97.57;96051.59;5115726;27;20210;-70
2021/11/21 02:38:13;;;;;;;6.10;5.07;;;;;;;5.02;97.74;96041.19;5117466;27;20219;-70
2021/11/21 02:40:40;;;;;;;4.87;2.70;;;;;;;4.77;97.99;96040.28;5117498;27;20229;-70
2021/11/21 02:43:06;;;;;;;5.27;2.60;;;;;;;4.61;98.71;96047.91;5117440;27;20208;-70
2021/11/21 02:45:33;;;;;;;8.40;3.67;;;;;;;4.32;99.31;96042.03;5117075;27;20212;-70
2021/11/21 02:48:00;;;;;;;6.20;3.17;;;;;;;4.62;99.33;96028.69;5116951;27;20203;-70
2021/11/21 02:50:29;;;;;;;5.00;3.60;;;;;;;4.90;98.35;96037.16;5116880;27;20228;-70
2021/11/21 02:52:57;;;;;;;7.80;3.50;;;;;;;4.78;98.45;96028.88;5117860;27;20293;-70
2021/11/21 02:55:27;;;;;;;5.03;2.67;;;;;;;5.07;97.70;96023.28;5117393;27;20209;-70
2021/11/21 02:57:54;;;;;;;6.83;4.10;;;;;;;4.79;98.11;96020.06;5117376;27;20207;-70
2021/11/21 03:00:20;;;;;;;1.90;1.80;;;;;;;4.55;99.45;96011.97;5117378;27;20222;-70
2021/11/21 03:02:48;;;;;;;13.73;4.33;;;;;;;4.45;99.60;96017.22;5117601;27;20202;-70
2021/11/21 03:05:17;;;;;;;8.43;2.20;;;;;;;4.71;99.23;96017.34;5116971;27;20202;-70
2021/11/21 03:07:44;;;;;;;14.37;4.83;;;;;;;4.64;98.75;96017.13;5116765;27;20302;-70
2021/11/21 03:10:14;;;;;;;8.97;3.17;;;;;;;4.73;99.30;96020.66;5110863;27;20229;-70
2021/11/21 03:12:42;;;;;;;9.80;3.73;;;;;;;4.71;99.81;96006.91;5116580;27;20197;-70
2021/11/21 03:15:09;;;;;;;3.10;1.90;;;;;;;4.67;99.42;96008.19;5116208;27;20229;-70
2021/11/21 03:17:36;;;;;;;11.37;2.97;;;;;;;4.55;99.08;96002.34;5116822;27;20725;-70
2021/11/21 03:20:02;;;;;;;4.83;2.30;;;;;;;4.60;98.88;96004.53;5114382;27;20271;-70
2021/11/21 03:22:29;;;;;;;5.30;2.87;;;;;;;4.44;99.14;95994.75;5116328;27;20198;-70
2021/11/21 03:24:55;;;;;;;3.80;1.67;;;;;;;4.31;99.42;95994.22;5116776;27;20202;-69
2021/11/21 03:27:23;;;;;;;4.70;2.47;;;;;;;4.43;99.14;96002.69;5115765;27;20828;-70
2021/11/21 03:29:51;;;;;;;4.27;2.97;;;;;;;4.88;98.45;95997.31;5116106;27;20241;-70
2021/11/21 03:32:18;;;;;;;10.07;4.37;;;;;;;4.66;97.94;95996.09;5116691;27;20196;-70
2021/11/21 03:34:44;;;;;;;2.07;1.80;;;;;;;4.27;99.34;95989.47;5117162;27;20216;-70
2021/11/21 03:37:11;;;;;;;5.63;2.30;;;;;;;4.45;99.02;95996.34;5115926;27;20670;-70
2021/11/21 03:39:38;;;;;;;5.80;3.60;;;;;;;4.50;98.60;96001.97;5117203;27;20888;-70
2021/11/21 03:42:05;;;;;;;10.87;3.70;;;;;;;4.41;99.65;95999.41;5116467;27;20229;-70
2021/11/21 03:44:33;;;;;;;14.77;3.63;;;;;;;4.41;100.00;95994.19;5116377;28;20212;-70
2021/11/21 03:47:01;;;;;;;5.23;3.53;;;;;;;4.31;100.00;95989.03;5116548;28;20221;-69
2021/11/21 03:49:27;;;;;;;2.30;2.10;;;;;;;4.13;100.00;95984.72;5116897;28;20202;-70
2021/11/21 03:51:54;;;;;;;1.80;1.60;;;;;;;4.27;99.86;95987.66;5116576;28;20205;-70
2021/11/21 03:54:20;;;;;;;7.27;4.07;;;;;;;4.31;99.46;95989.03;5116750;27;20201;-70
2021/11/21 03:56:47;;;;;;;3.77;2.70;;;;;;;4.20;99.57;95982.38;5116029;28;20217;-70
2021/11/21 03:59:13;;;;;;;5.47;3.03;;;;;;;4.33;99.18;95981.88;5115896;28;20201;-70
2021/11/21 04:01:40;;;;;;;6.17;2.33;;;;;;;4.26;99.22;95983.44;5116355;28;20222;-70
2021/11/21 04:04:10;;;;;;;2.00;1.90;;;;;;;4.45;99.63;95975.50;5116812;28;20198;-70
2021/11/21 04:06:36;;;;;;;6.87;2.37;;;;;;;4.35;99.03;95971.31;5115827;28;20800;-70
2021/11/21 04:09:03;;;;;;;4.63;3.47;;;;;;;4.40;98.81;95971.69;5116442;28;20206;-70
2021/11/21 04:11:30;;;;;;;7.77;4.50;;;;;;;4.02;100.00;95960.63;5116347;28;20245;-70
2021/11/21 04:13:57;;;;;;;3.40;2.10;;;;;;;4.10;100.00;95964.16;5116403;28;20633;-70
2021/11/21 04:16:24;;;;;;;4.17;2.50;;;;;;;4.15;99.66;95956.75;5115677;27;20198;-70
2021/11/21 04:18:50;;;;;;;8.60;2.93;;;;;;;4.04;99.81;95948.28;5116982;28;20205;-70
2021/11/21 04:21:18;;;;;;;13.63;5.20;;;;;;;4.28;100.00;95952.81;5116295;28;20705;-70
2021/11/21 04:23:45;;;;;;;3.77;2.57;;;;;;;4.28;99.61;95941.56;5115802;28;20209;-70
2021/11/21 04:26:12;;;;;;;5.57;2.50;;;;;;;4.09;100.00;95941.66;5114202;28;20198;-70
2021/11/21 04:28:39;;;;;;;7.40;3.53;;;;;;;4.06;100.00;95936.75;5116460;28;20209;-70
2021/11/21 04:31:06;;;;;;;11.03;2.90;;;;;;;4.26;99.84;95938.28;5115896;28;20239;-70
2021/11/21 04:33:32;;;;;;;4.77;1.97;;;;;;;3.93;100.00;95935.44;5115793;27;20197;-70
2021/11/21 04:35:59;;;;;;;4.83;2.63;;;;;;;4.29;99.34;95927.56;5115733;28;20212;-70
2021/11/21 04:38:27;;;;;;;4.80;1.93;;;;;;;4.47;99.66;95920.59;5115623;28;20200;-70
2021/11/21 04:40:54;;;;;;;3.23;2.13;;;;;;;4.25;99.60;95934.00;5114411;27;20228;-70
2021/11/21 04:43:21;;;;;;;6.67;3.33;;;;;;;4.42;98.79;95922.81;5114914;28;20212;-70
2021/11/21 04:45:48;;;;;;;5.80;4.63;;;;;;;4.12;99.96;95928.34;5114453;28;20213;-70
2021/11/21 04:48:15;;;;;;;7.13;2.37;;;;;;;4.16;100.00;95921.84;5115094;28;20194;-70
2021/11/21 04:50:42;;;;;;;6.13;2.97;;;;;;;4.11;100.00;95924.09;5115670;28;20599;-70
2021/11/21 04:53:08;;;;;;;7.40;3.87;;;;;;;4.36;98.86;95913.78;5115090;28;21036;-70
2021/11/21 04:55:36;;;;;;;7.77;3.03;;;;;;;4.46;99.33;95919.75;5116822;27;20232;-70
2021/11/21 04:58:03;;;;;;;5.17;1.83;;;;;;;3.96;100.00;95912.50;5119952;27;20209;-70
2021/11/21 05:00:29;;;;;;;3.10;2.80;;;;;;;4.09;100.00;95910.38;5119214;27;20269;-70
2021/11/21 05:02:57;;;;;;;4.00;2.67;;;;;;;4.39;98.90;95907.44;5118812;27;20799;-70
2021/11/21 05:05:24;;;;;;;1.40;1.30;;;;;;;4.42;99.52;95897.53;5119062;27;20205;-70
2021/11/21 05:07:52;;;;;;;3.90;3.23;;;;;;;4.41;99.38;95895.09;5119212;27;20208;-70
2021/11/21 05:10:20;;;;;;;14.53;5.00;;;;;;;4.72;98.99;95898.97;5119039;27;20589;-70
2021/11/21 05:12:49;;;;;;;8.67;5.10;;;;;;;4.85;98.31;95898.44;5119236;27;20690;-70
2021/11/21 05:15:19;;;;;;;5.30;3.13;;;;;;;4.68;97.69;95897.63;5119374;27;20278;-70
2021/11/21 05:17:48;;;;;;;8.27;3.83;;;;;;;4.61;98.15;95891.34;5118259;27;20209;-70
2021/11/21 05:20:15;;;;;;;2.47;2.23;;;;;;;4.68;97.40;95892.41;5118990;27;20897;-70
2021/11/21 05:22:41;;;;;;;6.83;3.20;;;;;;;4.53;97.74;95888.66;5119017;27;20205;-70
2021/11/21 05:25:08;;;;;;;10.13;4.70;;;;;;;4.53;98.52;95888.66;5118457;27;20209;-70
2021/11/21 05:27:35;;;;;;;5.73;3.70;;;;;;;4.75;97.69;95893.44;5118470;27;20208;-70
2021/11/21 05:30:04;;;;;;;6.20;4.53;;;;;;;4.78;97.97;95893.16;5118051;27;20245;-69
2021/11/21 05:32:30;;;;;;;4.87;2.83;;;;;;;4.45;98.31;95886.00;5117844;27;20678;-69
2021/11/21 05:34:57;;;;;;;2.47;2.13;;;;;;;4.46;98.22;95882.41;5117888;27;20220;-70
2021/11/21 05:37:23;;;;;;;6.50;3.80;;;;;;;4.20;99.92;95881.50;5118809;27;20202;-69
2021/11/21 05:39:50;;;;;;;4.87;2.63;;;;;;;4.62;98.39;95882.56;5118995;27;20240;-70
2021/11/21 05:42:17;;;;;;;8.40;4.43;;;;;;;4.93;97.01;95877.59;5118560;27;20225;-70
2021/11/21 05:44:43;;;;;;;9.33;3.37;;;;;;;4.69;97.73;95873.97;5117940;27;20415;-69
2021/11/21 05:47:11;;;;;;;5.07;3.40;;;;;;;5.20;96.89;95867.03;5116211;27;20195;-69
2021/11/21 05:49:37;;;;;;;12.32;6.50;;;;;;;4.65;99.17;95870.03;5116492;27;20441;-70
2021/11/21 05:52:04;;;;;;;8.37;3.30;;;;;;;4.79;97.84;95876.53;5117864;27;20211;-71
2021/11/21 05:54:31;;;;;;;17.30;4.67;;;;;;;5.01;96.10;95874.25;5118935;27;20198;-71
2021/11/21 05:56:57;;;;;;;8.23;3.60;;;;;;;4.68;97.04;95876.75;5117155;27;20217;-70
2021/11/21 05:59:24;;;;;;;7.27;4.33;;;;;;;4.85;96.35;95880.16;5115467;27;21560;-71
2021/11/21 06:01:50;;;;;;;4.87;2.50;;;;;;;4.69;96.54;95878.38;5118092;27;20237;-70
2021/11/21 06:04:18;;;;;;;11.67;4.27;;;;;;;5.03;96.52;95873.13;5118114;27;20205;-71
2021/11/21 06:06:44;;;;;;;10.00;5.13;;;;;;;4.89;96.06;95878.88;5117217;27;20207;-71
2021/11/21 06:09:11;;;;;;;6.17;2.97;;;;;;;4.86;96.48;95876.59;5117793;27;20199;-70
2021/11/21 06:11:38;;;;;;;9.47;3.77;;;;;;;4.69;96.67;95873.97;5118488;27;20214;-70
2021/11/21 06:14:04;;;;;;;5.07;3.13;;;;;;;4.50;97.36;95875.94;5118269;27;20208;-70
2021/11/21 06:16:31;;;;;;;6.23;2.80;;;;;;;4.68;96.97;95866.31;5117370;27;21021;-70
2021/11/21 06:18:57;;;;;;;9.77;2.80;;;;;;;4.58;96.96;95855.97;5118392;27;20206;-71
2021/11/21 06:21:25;;;;;;;7.60;4.00;;;;;;;5.04;96.73;95859.09;5117653;27;20225;-70
2021/11/21 06:23:51;;;;;;;10.57;4.30;;;;;;;4.51;97.64;95860.13;5117970;27;20206;-70
2021/11/21 06:26:19;;;;;;;6.33;3.33;;;;;;;4.51;98.08;95860.13;5117389;27;20198;-70
2021/11/21 06:28:45;;;;;;;7.10;3.13;;;;;;;4.41;98.38;95866.38;5117873;27;20290;-70
2021/11/21 06:31:12;;;;;;;7.73;1.70;;;;;;;4.25;99.13;95866.22;5117039;27;20668;-70
2021/11/21 06:33:38;;;;;;;6.60;3.90;;;;;;;4.45;98.75;95865.13;5118496;27;20266;-70
2021/11/21 06:36:06;;;;;;;5.97;3.97;;;;;;;4.32;99.40;95864.66;5117322;27;20209;-70
2021/11/21 06:38:34;;;;;;;8.80;4.80;;;;;;;4.79;98.23;95853.03;5117477;27;20225;-70
2021/11/21 06:41:01;;;;;;;5.40;2.70;;;;;;;4.07;99.91;95862.78;5117700;27;20244;-71
2021/11/21 06:43:27;;;;;;;15.17;5.60;;;;;;;4.13;100.00;95861.38;5117868;27;20217;-70
2021/11/21 06:45:54;;;;;;;6.73;4.53;;;;;;;4.40;99.29;95862.97;5116298;27;20208;-70
2021/11/21 06:48:21;;;;;;;4.30;3.07;;;;;;;4.41;99.55;95858.56;5117332;27;20575;-70
2021/11/21 06:50:51;;;;;;;4.27;3.00;;;;;;;4.55;98.42;95850.22;5117501;27;20272;-70
2021/11/21 06:53:17;;;;;;;6.63;3.40;;;;;;;4.24;99.36;95854.16;5117404;27;20486;-70
2021/11/21 06:55:45;;;;;;;11.37;5.20;;;;;;;4.63;99.29;95858.09;5116928;27;20204;-70
2021/11/21 06:58:12;;;;;;;5.20;3.17;;;;;;;4.60;98.42;95858.41;5117287;27;20742;-70
2021/11/21 07:00:38;;;;;;;5.10;3.23;;;;;;;4.55;98.28;95860.66;5116396;27;20232;-70
2021/11/21 07:03:05;;;;;;;6.37;3.77;;;;;;;4.56;98.25;95859.69;5116416;27;20231;-70
2021/11/21 07:05:31;;;;;;;7.33;3.83;;;;;;;4.51;97.97;95861.94;5116163;27;20202;-70
2021/11/21 07:07:58;;;;;;;7.50;4.13;;;;;;;4.60;97.23;95863.63;5115947;27;20668;-70
2021/11/21 07:10:25;;;;;;;3.23;2.20;;;;;;;4.32;98.26;95859.47;5116567;27;20707;-70
2021/11/21 07:12:52;;;;;;;6.33;3.90;;;;;;;4.94;97.36;95863.59;5116005;27;20201;-70
2021/11/21 07:15:19;;;;;;;6.73;3.40;;;;;;;4.71;96.83;95868.59;5116846;27;20217;-70
2021/11/21 07:17:49;;;;;;;12.57;4.17;;;;;;;5.17;95.66;95861.31;5114849;27;20198;-71
2021/11/21 07:20:16;;;;;;;9.17;4.03;;;;;;;4.88;96.03;95861.56;5116008;27;20871;-70
2021/11/21 07:22:43;;;;;;;5.67;4.30;;;;;;;4.86;95.68;95855.69;5116058;27;20210;-70
2021/11/21 07:25:10;;;;;;;6.73;4.20;;;;;;;4.72;96.62;95860.63;5116208;27;20283;-70
2021/11/21 07:27:36;;;;;;;3.80;2.23;;;;;;;4.70;96.76;95859.13;5115468;27;20596;-70
2021/11/21 07:30:05;;;;;;;7.53;4.40;;;;;;;4.87;96.68;95856.50;5116104;27;20225;-70
2021/11/21 07:32:31;;;;;;;9.13;3.53;;;;;;;4.71;96.25;95858.16;5116425;27;20198;-70
2021/11/21 07:34:58;;;;;;;5.47;3.60;;;;;;;4.70;96.43;95864.34;5117267;27;20228;-70
2021/11/21 07:37:24;;;;;;;5.07;2.33;;;;;;;4.60;96.63;95851.41;5116078;27;20194;-70
2021/11/21 07:39:51;;;;;;;6.20;3.90;;;;;;;4.83;96.34;95853.38;5116726;27;20227;-70
2021/11/21 07:42:18;;;;;;;3.53;3.10;;;;;;;4.79;96.38;95847.81;5116861;28;20717;-70
2021/11/21 07:44:44;;;;;;;6.23;3.40;;;;;;;4.83;96.12;95844.75;5116593;28;20204;-70
2021/11/21 07:47:12;;;;;;;7.33;4.17;;;;;;;4.99;96.79;95853.50;5116176;28;20201;-70
2021/11/21 07:49:38;;;;;;;10.63;4.17;;;;;;;4.74;96.82;95853.47;5116773;28;20226;-70
2021/11/21 07:52:05;;;;;;;7.23;3.33;;;;;;;4.80;97.13;95862.47;5117291;28;20212;-70
2021/11/21 07:54:32;;;;;;;4.03;2.37;;;;;;;4.63;97.71;95850.28;5116636;28;20209;-70
2021/11/21 07:56:59;;;;;;;7.03;3.87;;;;;;;4.40;98.01;95859.53;5116001;28;20257;-70
2021/11/21 07:59:26;;;;;;;3.03;2.50;;;;;;;4.38;98.24;95856.25;5116003;27;20207;-70
2021/11/21 08:01:52;;;;;;;4.67;3.43;;;;;;;4.71;97.31;95861.63;5116771;28;20237;-71
2021/11/21 08:04:20;;;;;;;13.83;4.73;;;;;;;5.22;96.14;95846.81;5116330;27;20198;-70
2021/11/21 08:06:47;;;;;;;5.87;3.83;;;;;;;4.89;96.11;95850.16;5116042;28;20197;-72
2021/11/21 08:09:13;;;;;;;4.37;3.00;;;;;;;4.57;97.36;95849.09;5116362;28;20853;-70
2021/11/21 08:11:40;;;;;;;4.33;3.93;;;;;;;4.95;96.37;95844.34;5116520;28;20659;-71
2021/11/21 08:14:06;;;;;;;8.30;4.30;;;;;;;4.94;96.18;95841.91;5116188;28;20305;-71
2021/11/21 08:16:33;;;;;;;12.77;5.63;;;;;;;4.99;96.12;95844.84;5115480;28;20202;-70
2021/11/21 08:18:59;;;;;;;4.43;3.27;;;;;;;4.82;96.84;95847.50;5115853;28;20201;-70
2021/11/21 08:21:27;;;;;;;8.83;4.30;;;;;;;5.11;96.71;95849.66;5116711;28;20236;-71
2021/11/21 08:23:54;;;;;;;8.37;5.40;;;;;;;4.55;97.63;95858.03;5116573;27;20210;-71
2021/11/21 08:26:20;;;;;;;13.83;3.77;;;;;;;4.84;97.00;95856.81;5115669;28;20205;-71
2021/11/21 08:28:47;;;;;;;9.33;5.17;;;;;;;4.74;97.41;95860.50;5116324;27;20208;-71
2021/11/21 08:31:13;;;;;;;3.33;2.60;;;;;;;4.87;97.25;95846.91;5118782;27;20322;-71
2021/11/21 08:33:40;;;;;;;6.60;3.63;;;;;;;4.86;97.11;95854.88;5119847;27;20209;-71
2021/11/21 08:36:06;;;;;;;11.70;3.60;;;;;;;4.84;97.08;95851.59;5118836;27;20685;-71
2021/11/21 08:38:34;;;;;;;6.57;3.77;;;;;;;5.13;97.67;95846.91;5120135;27;20198;-71
2021/11/21 08:41:02;;;;;;;3.40;2.53;;;;;;;4.82;96.98;95846.53;5119837;27;20230;-71
2021/11/21 08:43:28;;;;;;;3.80;2.47;;;;;;;4.72;97.42;95841.53;5119268;27;20217;-70
2021/11/21 08:45:55;;;;;;;2.30;1.90;;;;;;;4.80;97.32;95842.44;5119214;27;20205;-71
2021/11/21 08:48:21;;;;;;;4.97;2.73;;;;;;;4.91;96.94;95845.63;5119786;27;20213;-71
2021/11/21 08:50:48;;;;;;;1.70;1.40;;;;;;;5.11;95.87;95839.22;5118863;27;20218;-72
2021/11/21 08:53:15;;;;;;;3.00;2.43;;;;;;;4.82;95.56;95844.91;5120025;27;20201;-71
2021/11/21 08:55:43;;;;;;;5.97;3.60;;;;;;;5.13;96.49;95841.66;5119209;27;20211;-72
2021/11/21 08:58:09;;;;;;;3.50;2.80;;;;;;;4.55;97.46;95845.00;5118597;27;20218;-72
2021/11/21 09:00:36;;;;;;;6.30;2.87;;;;;;;5.22;95.71;95844.19;5118034;27;20222;-72
2021/11/21 09:03:02;;;;;;;7.47;3.40;;;;;;;5.23;95.16;95850.22;5119353;27;20238;-72
2021/11/21 09:05:29;;;;;;;9.40;2.77;;;;;;;5.31;94.67;95845.88;5117400;27;20206;-72
2021/11/21 09:07:55;;;;;;;12.23;3.60;;;;;;;5.07;95.71;95847.53;5117919;27;20265;-72
2021/11/21 09:10:23;;;;;;;9.73;3.03;;;;;;;5.12;96.52;95848.69;5120484;27;20654;-71
2021/11/21 09:12:51;;;;;;;2.70;2.00;;;;;;;5.23;96.43;95853.69;5122685;27;20198;-70
2021/11/21 09:15:21;;;;;;;6.90;3.43;;;;;;;5.21;96.58;95844.34;5120938;27;20201;-72
2021/11/21 09:17:52;;;;;;;3.67;2.67;;;;;;;5.27;95.77;95843.72;5123124;27;20202;-72
2021/11/21 09:20:19;;;;;;;3.40;2.17;;;;;;;5.09;95.57;95846.41;5126313;27;20221;-71
2021/11/21 09:22:46;;;;;;;6.63;2.90;;;;;;;5.30;95.05;95846.84;5120438;27;20236;-73
2021/11/21 09:25:12;;;;;;;5.27;3.13;;;;;;;5.55;94.41;95848.63;5122902;27;20195;-71
2021/11/21 09:27:39;;;;;;;2.10;1.83;;;;;;;4.97;95.52;95858.03;5125521;27;20198;-71
2021/11/21 09:30:10;;;;;;;4.57;3.03;;;;;;;5.38;95.20;95861.75;5126419;27;20237;-71
2021/11/21 09:32:39;;;;;;;4.50;2.90;;;;;;;5.04;95.87;95866.94;5127561;27;20198;-70
2021/11/21 09:35:08;;;;;;;3.10;2.73;;;;;;;5.63;94.90;95856.50;5128860;27;20241;-71
2021/11/21 09:37:35;;;;;;;4.33;2.83;;;;;;;5.39;94.67;95855.56;5127824;27;20666;-71
2021/11/21 09:40:01;;;;;;;5.43;2.93;;;;;;;5.01;95.20;95855.97;5128413;27;20226;-71
2021/11/21 09:42:28;;;;;;;6.50;3.77;;;;;;;5.25;95.21;95853.53;5128693;27;20219;-71
2021/11/21 09:44:54;;;;;;;9.07;4.73;;;;;;;5.25;94.68;95856.13;5128489;27;20597;-71
2021/11/21 09:47:22;;;;;;;3.17;2.83;;;;;;;5.53;94.92;95846.16;5128554;27;20212;-71
2021/11/21 09:49:49;;;;;;;7.37;3.67;;;;;;;5.45;95.11;95846.13;5127701;27;20250;-72
2021/11/21 09:52:16;;;;;;;4.60;3.97;;;;;;;5.34;94.76;95839.53;5128924;27;20195;-70
2021/11/21 09:54:43;;;;;;;4.43;2.10;;;;;;;4.97;95.62;95845.00;5127365;27;20209;-71
2021/11/21 09:57:09;;;;;;;3.23;2.83;;;;;;;4.71;97.50;95839.91;5127125;27;20543;-73
2021/11/21 09:59:51;;;;;;;2.97;2.30;;;;;;;5.15;97.16;95839.75;5127087;27;20226;-71
2021/11/21 10:02:19;;;;;;;9.30;3.87;;;;;;;4.80;97.82;95842.44;5124644;27;20792;-73
2021/11/21 10:04:47;;;;;;;6.20;2.77;;;;;;;5.16;96.81;95826.53;5118246;27;20209;-70
2021/11/21 10:07:23;;;;;;;6.40;3.03;;;;;;;5.61;95.04;95824.47;5117550;27;20313;-71
2021/11/21 10:09:50;;;;;;;6.77;3.80;;;;;;;5.23;95.16;95817.13;5118124;27;20231;-71
2021/11/21 10:12:16;;;;;;;8.63;3.50;;;;;;;5.31;94.97;95816.31;5118686;27;20198;-70
2021/11/21 10:14:59;;;;;;;9.90;4.77;;;;;;;5.83;94.08;95814.31;5118103;27;20211;-71
2021/11/21 10:17:27;;;;;;;7.03;3.50;;;;;;;5.42;95.22;95814.25;5117422;27;20202;-71
2021/11/21 10:20:11;;;;;;;7.50;4.40;;;;;;;5.85;94.64;95806.31;5117978;27;20218;-72
2021/11/21 10:22:49;;;;;;;12.03;6.03;;;;;;;5.87;94.72;95807.78;5117744;27;20292;-72
2021/11/21 10:25:37;;;;;;;7.23;3.97;;;;;;;5.86;94.28;95807.94;5117134;27;20201;-74
2021/11/21 10:28:05;;;;;;;7.00;4.03;;;;;;;5.79;94.35;95814.78;5116954;27;20255;-74
2021/11/21 10:30:31;;;;;;;9.97;4.83;;;;;;;5.49;94.93;95807.44;5114808;27;20225;-73
2021/11/21 10:33:02;;;;;;;8.97;5.17;;;;;;;5.79;94.77;95806.94;5117446;27;20592;-74
2021/11/21 10:35:30;;;;;;;13.70;5.50;;;;;;;5.64;95.58;95809.28;5116652;27;20574;-72
2021/11/21 10:37:58;;;;;;;5.83;2.80;;;;;;;5.42;95.71;95809.03;5117182;27;20202;-68
2021/11/21 10:40:25;;;;;;;12.43;6.63;;;;;;;5.26;96.10;95795.91;5117079;27;20214;-70
2021/11/21 10:42:53;;;;;;;8.83;5.23;;;;;;;5.63;95.24;95804.22;5116975;27;20219;-72
2021/11/21 10:45:22;;;;;;;4.63;2.27;;;;;;;5.39;96.13;95800.69;5117587;27;20203;-71
2021/11/21 10:47:50;;;;;;;6.87;3.13;;;;;;;5.54;94.41;95799.94;5117283;27;20800;-71
2021/11/21 10:50:31;;;;;;;4.53;3.57;;;;;;;6.25;92.57;95800.19;5117558;27;20231;-73
2021/11/21 10:53:00;;;;;;;11.43;4.83;;;;;;;5.91;91.82;95795.22;5117212;27;20201;-71
2021/11/21 10:55:27;;;;;;;4.03;2.80;;;;;;;5.90;91.20;95789.16;5116842;27;20205;-71
2021/11/21 10:57:54;;;;;;;8.37;3.07;;;;;;;5.52;93.33;95797.50;5116865;27;20286;-72
2021/11/21 11:00:23;;;;;;;10.97;4.33;;;;;;;5.75;92.77;95788.13;5116823;27;20689;-72
2021/11/21 11:02:51;;;;;;;7.00;3.63;;;;;;;6.15;91.81;95790.84;5116882;27;20222;-72
2021/11/21 11:05:19;;;;;;;8.87;4.03;;;;;;;5.90;91.95;95790.97;5117143;27;20966;-71
2021/11/21 11:07:55;;;;;;;11.70;3.53;;;;;;;6.29;91.89;95788.41;5116583;27;20207;-72
2021/11/21 11:10:24;;;;;;;5.80;3.30;;;;;;;5.73;92.46;95786.63;5117785;27;20213;-72
2021/11/21 11:12:53;;;;;;;10.57;4.83;;;;;;;5.95;91.71;95784.25;5117001;27;20276;-72
2021/11/21 11:15:24;;;;;;;6.67;3.90;;;;;;;5.75;91.47;95782.06;5114473;27;20199;-72
2021/11/21 11:17:51;;;;;;;7.87;4.03;;;;;;;5.43;93.56;95781.94;5117397;27;20278;-73
2021/11/21 11:20:19;;;;;;;8.87;4.07;;;;;;;5.74;92.68;95780.41;5115666;27;20218;-72
2021/11/21 11:22:47;;;;;;;5.37;3.67;;;;;;;5.54;92.67;95779.06;5115904;27;20229;-69
2021/11/21 11:25:19;;;;;;;5.77;3.07;;;;;;;6.19;90.90;95772.03;5117000;27;20212;-68
2021/11/21 11:27:49;;;;;;;6.93;4.27;;;;;;;6.04;90.99;95781.50;5115546;27;20194;-71
2021/11/21 11:30:18;;;;;;;8.67;4.67;;;;;;;6.08;91.01;95776.75;5116701;27;20232;-72
2021/11/21 11:32:46;;;;;;;5.73;3.30;;;;;;;5.82;90.97;95780.50;5117687;27;20194;-69
2021/11/21 11:35:29;;;;;;;5.43;4.50;;;;;;;5.90;90.79;95776.06;5116604;27;20218;-68
2021/11/21 11:37:57;;;;;;;12.17;5.23;;;;;;;5.57;92.26;95774.31;5116137;27;20191;-70
2021/11/21 11:40:49;;;;;;;7.90;3.73;;;;;;;5.88;90.19;95772.81;5117142;27;20218;-68